Seastreak Highlands — WDE4031 — position and weather

sailwx.info

Track history (hours):
 
Tides and Currents Weather Stations Pressure Air Temp Water Temp Dewpoint Dewpoint Depression Visibility Wind Speed Wind Dir Waves Ship Positions

Seastreak Highlands

Owner: Seastreak llc, atlantic highlands, NJ. More information available from US FCC via Universal Licensing System and Coast Guard Vessel Documentation Center.

Last reported at 2017-Feb-25 00:05 UTC. Time now 2017-Feb-26 07:38 UTC.
Position N 40°25' W 073°60'.

Length 44 m.

Type: High speed craft. MMSI: 367347670.

Date/timePositionNaut miles runAvg speedWind from/ knotsBaromVisibWave heightAir tempDewpointWater temp
2017-Feb-25 00:05N 40°25' W 073°60'1121.7
2017-Feb-24 23:33N 40°36' W 074°03'1 0.8
2017-Feb-24 22:33N 40°37' W 074°03'1 1.5
2017-Feb-24 21:32N 40°35' W 074°03'1010.0
2017-Feb-24 20:33N 40°45' W 073°58'0 0.0
2017-Feb-24 19:33N 40°45' W 073°58'0 0.0
2017-Feb-24 18:33N 40°45' W 073°58'0 0.0
2017-Feb-24 17:33N 40°45' W 073°58'0 0.0
2017-Feb-24 16:34N 40°45' W 073°58'0 0.0
2017-Feb-24 15:33N 40°45' W 073°58'3 3.0
2017-Feb-24 14:33N 40°42' W 074°00'1211.5
2017-Feb-24 13:31N 40°30' W 074°02'1111.4
2017-Feb-24 12:34N 40°41' W 074°01'16 1.5
2017-Feb-24 01:33N 40°25' W 073°60'1919.3
2017-Feb-24 00:33N 40°44' W 073°58'1818.0
2017-Feb-23 23:33N 40°26' W 074°01'1515.3
2017-Feb-23 22:34N 40°42' W 074°00'1 0.5
2017-Feb-23 21:33N 40°42' W 074°01'8 7.0
2017-Feb-23 20:21N 40°33' W 074°02'1214.6
2017-Feb-23 19:33N 40°45' W 073°58'0 0.0
2017-Feb-23 18:33N 40°45' W 073°58'0 0.0
2017-Feb-23 17:34N 40°45' W 073°58'0 0.0
2017-Feb-23 16:33N 40°45' W 073°58'0 0.0
2017-Feb-23 15:34N 40°45' W 073°58'3 3.3
2017-Feb-23 14:34N 40°42' W 074°00'1010.3
2017-Feb-23 13:33N 40°31' W 074°02'9 8.9
2017-Feb-23 12:34N 40°40' W 074°01'1611.3
2017-Feb-23 11:11N 40°25' W 073°60'1 0.1
2017-Feb-23 01:31N 40°25' W 074°01'1919.4
2017-Feb-23 00:33N 40°44' W 073°58'1918.5
2017-Feb-22 23:31N 40°25' W 073°60'1717.4
2017-Feb-22 22:34N 40°41' W 074°01'1 0.7
2017-Feb-22 21:34N 40°41' W 074°02'1312.3
2017-Feb-22 20:31N 40°28' W 074°01'1617.3
2017-Feb-22 19:34N 40°45' W 073°58'0 0.0
2017-Feb-22 18:33N 40°45' W 073°58'0 0.0
2017-Feb-22 17:33N 40°45' W 073°58'0 0.0
2017-Feb-22 16:33N 40°45' W 073°58'0 0.0
2017-Feb-22 15:33N 40°45' W 073°58'3 3.0
2017-Feb-22 14:33N 40°42' W 074°00'1110.4
2017-Feb-22 13:32N 40°32' W 074°02'8 8.5
2017-Feb-22 12:33N 40°40' W 074°02'1514.7
2017-Feb-22 11:31N 40°25' W 073°60'0 0.0
2017-Feb-22 05:33N 40°25' W 073°60'0 0.1
2017-Feb-22 01:33N 40°25' W 074°00'1919.3
2017-Feb-22 00:34N 40°44' W 073°58'1917.0
2017-Feb-21 23:26N 40°25' W 073°60'1719.4
2017-Feb-21 22:34N 40°41' W 074°01'0 0.2
2017-Feb-21 21:34N 40°41' W 074°01'8 6.6
2017-Feb-21 20:21N 40°33' W 074°02'1214.8
2017-Feb-21 19:33N 40°45' W 073°58'0 0.0
2017-Feb-21 18:33N 40°45' W 073°58'0 0.0
2017-Feb-21 17:34N 40°45' W 073°58'0 0.0
2017-Feb-21 16:33N 40°45' W 073°58'0 0.0
2017-Feb-21 15:33N 40°45' W 073°58'3 2.9
2017-Feb-21 14:33N 40°42' W 074°00'10 9.9
2017-Feb-21 13:33N 40°32' W 074°02'7 7.5
2017-Feb-21 12:34N 40°40' W 074°02'1514.0
2017-Feb-21 11:28N 40°25' W 073°60'2 2.0
2017-Feb-21 10:33N 40°25' W 074°02'0 0.0
2017-Feb-21 01:33N 40°25' W 074°02'0 0.2
2017-Feb-21 00:33N 40°25' W 074°02'1818.8
2017-Feb-20 23:33N 40°44' W 073°58'1918.5
2017-Feb-20 22:33N 40°25' W 074°02'1717.5
2017-Feb-20 21:33N 40°42' W 073°59'2 2.3
2017-Feb-20 20:33N 40°45' W 073°58'0 0.0
2017-Feb-20 19:32N 40°45' W 073°58'0 0.0
2017-Feb-20 18:33N 40°45' W 073°58'0 0.0
2017-Feb-20 17:33N 40°45' W 073°58'0 0.0
2017-Feb-20 16:33N 40°45' W 073°58'0 0.0
2017-Feb-20 15:33N 40°45' W 073°58'3 3.2
2017-Feb-20 14:34N 40°42' W 074°00'1210.7
2017-Feb-20 13:28N 40°30' W 074°02'1011.4
2017-Feb-20 12:33N 40°41' W 074°01'1611.3
2017-Feb-20 11:08N 40°25' W 073°60'  
2017-Feb-18 02:33N 40°25' W 074°02'2 1.6
2017-Feb-18 01:33N 40°25' W 073°60'1919.2
2017-Feb-18 00:34N 40°44' W 073°58'1918.1
2017-Feb-17 23:31N 40°25' W 074°00'1717.4
2017-Feb-17 22:34N 40°41' W 074°01'1 0.9
2017-Feb-17 21:34N 40°41' W 074°01'1210.9
2017-Feb-17 20:29N 40°29' W 074°01'1617.5
2017-Feb-17 19:33N 40°45' W 073°58'0 0.0
2017-Feb-17 18:34N 40°45' W 073°58'0 0.0
2017-Feb-17 17:33N 40°45' W 073°58'0 0.0
2017-Feb-17 16:33N 40°45' W 073°58'0 0.0
2017-Feb-17 15:33N 40°45' W 073°58'3 3.0
2017-Feb-17 14:34N 40°42' W 074°00'1111.2
2017-Feb-17 13:32N 40°31' W 074°02'8 8.5
2017-Feb-17 12:34N 40°39' W 074°02'14 6.9
2017-Feb-17 10:33N 40°25' W 074°02'0 0.0
2017-Feb-17 02:33N 40°25' W 074°02'0 0.5
2017-Feb-17 01:32N 40°25' W 074°01'2019.8
2017-Feb-17 00:33N 40°44' W 073°58'2019.3
2017-Feb-16 23:31N 40°25' W 073°60'1717.3
2017-Feb-16 22:34N 40°41' W 074°01'2 2.3
2017-Feb-16 21:34N 40°39' W 074°02'1312.0
2017-Feb-16 20:31N 40°27' W 074°01'1818.8
2017-Feb-16 19:33N 40°45' W 073°58'0 0.0
2017-Feb-16 18:33N 40°45' W 073°58'0 0.0
2017-Feb-16 17:33N 40°45' W 073°58'0 0.0
2017-Feb-16 16:33N 40°45' W 073°58'0 0.0
2017-Feb-16 15:33N 40°45' W 073°58'5 5.4
2017-Feb-16 14:34N 40°40' W 074°01'4 4.3
2017-Feb-16 13:33N 40°36' W 074°03'3 3.4
2017-Feb-16 12:34N 40°39' W 074°02'14 1.4
2017-Feb-16 02:33N 40°25' W 074°02'2 1.8
2017-Feb-16 01:32N 40°25' W 073°60'1919.5
2017-Feb-16 00:33N 40°44' W 073°58'1615.9
2017-Feb-15 23:33N 40°28' W 074°01'1414.1
2017-Feb-15 22:33N 40°42' W 074°00'1 0.7
2017-Feb-15 21:33N 40°41' W 074°01'10 8.8
2017-Feb-15 20:23N 40°31' W 074°02'1417.0
2017-Feb-15 19:33N 40°45' W 073°58'0 0.0
2017-Feb-15 18:33N 40°45' W 073°58'0 0.0
2017-Feb-15 17:33N 40°45' W 073°58'0 0.0
2017-Feb-15 16:33N 40°45' W 073°58'0 0.0
2017-Feb-15 15:33N 40°45' W 073°58'3 2.9
2017-Feb-15 14:33N 40°42' W 074°00'10 9.3
2017-Feb-15 13:31N 40°33' W 074°02'8 4.2
2017-Feb-15 11:33N 40°25' W 073°60'2 1.8
2017-Feb-15 10:33N 40°25' W 074°02'0 0.0
2017-Feb-15 02:33N 40°25' W 074°02'2 1.8
2017-Feb-15 01:32N 40°25' W 073°60'1919.8
2017-Feb-15 00:34N 40°44' W 073°58'  
Track history (hours):
 
Tides and Currents Weather Stations Pressure Air Temp Water Temp Dewpoint Dewpoint Depression Visibility Wind Speed Wind Dir Waves Ship Positions

Seastreak Highlands

Owner: Seastreak llc, atlantic highlands, NJ. More information available from US FCC via Universal Licensing System and Coast Guard Vessel Documentation Center.

Last reported at 2017-Feb-25 00:05 UTC. Time now 2017-Feb-26 07:38 UTC.
Position N 40°25' W 073°60'.

Length 44 m.

Type: High speed craft. MMSI: 367347670.

Date/timePositionNaut miles runAvg speedWind from/ knotsBaromVisibWave heightAir tempDewpointWater temp
2017-Feb-25 00:05N 40°25' W 073°60'1121.7
2017-Feb-24 23:33N 40°36' W 074°03'1 0.8
2017-Feb-24 22:33N 40°37' W 074°03'1 1.5
2017-Feb-24 21:32N 40°35' W 074°03'1010.0
2017-Feb-24 20:33N 40°45' W 073°58'0 0.0
2017-Feb-24 19:33N 40°45' W 073°58'0 0.0
2017-Feb-24 18:33N 40°45' W 073°58'0 0.0
2017-Feb-24 17:33N 40°45' W 073°58'0 0.0
2017-Feb-24 16:34N 40°45' W 073°58'0 0.0
2017-Feb-24 15:33N 40°45' W 073°58'3 3.0
2017-Feb-24 14:33N 40°42' W 074°00'1211.5
2017-Feb-24 13:31N 40°30' W 074°02'1111.4
2017-Feb-24 12:34N 40°41' W 074°01'16 1.5
2017-Feb-24 01:33N 40°25' W 073°60'1919.3
2017-Feb-24 00:33N 40°44' W 073°58'1818.0
2017-Feb-23 23:33N 40°26' W 074°01'1515.3
2017-Feb-23 22:34N 40°42' W 074°00'1 0.5
2017-Feb-23 21:33N 40°42' W 074°01'8 7.0
2017-Feb-23 20:21N 40°33' W 074°02'1214.6
2017-Feb-23 19:33N 40°45' W 073°58'0 0.0
2017-Feb-23 18:33N 40°45' W 073°58'0 0.0
2017-Feb-23 17:34N 40°45' W 073°58'0 0.0
2017-Feb-23 16:33N 40°45' W 073°58'0 0.0
2017-Feb-23 15:34N 40°45' W 073°58'3 3.3
2017-Feb-23 14:34N 40°42' W 074°00'1010.3
2017-Feb-23 13:33N 40°31' W 074°02'9 8.9
2017-Feb-23 12:34N 40°40' W 074°01'1611.3
2017-Feb-23 11:11N 40°25' W 073°60'1 0.1
2017-Feb-23 01:31N 40°25' W 074°01'1919.4
2017-Feb-23 00:33N 40°44' W 073°58'1918.5
2017-Feb-22 23:31N 40°25' W 073°60'1717.4
2017-Feb-22 22:34N 40°41' W 074°01'1 0.7
2017-Feb-22 21:34N 40°41' W 074°02'1312.3
2017-Feb-22 20:31N 40°28' W 074°01'1617.3
2017-Feb-22 19:34N 40°45' W 073°58'0 0.0
2017-Feb-22 18:33N 40°45' W 073°58'0 0.0
2017-Feb-22 17:33N 40°45' W 073°58'0 0.0
2017-Feb-22 16:33N 40°45' W 073°58'0 0.0
2017-Feb-22 15:33N 40°45' W 073°58'3 3.0
2017-Feb-22 14:33N 40°42' W 074°00'1110.4
2017-Feb-22 13:32N 40°32' W 074°02'8 8.5
2017-Feb-22 12:33N 40°40' W 074°02'1514.7
2017-Feb-22 11:31N 40°25' W 073°60'0 0.0
2017-Feb-22 05:33N 40°25' W 073°60'0 0.1
2017-Feb-22 01:33N 40°25' W 074°00'1919.3
2017-Feb-22 00:34N 40°44' W 073°58'1917.0
2017-Feb-21 23:26N 40°25' W 073°60'1719.4
2017-Feb-21 22:34N 40°41' W 074°01'0 0.2
2017-Feb-21 21:34N 40°41' W 074°01'8 6.6
2017-Feb-21 20:21N 40°33' W 074°02'1214.8
2017-Feb-21 19:33N 40°45' W 073°58'0 0.0
2017-Feb-21 18:33N 40°45' W 073°58'0 0.0
2017-Feb-21 17:34N 40°45' W 073°58'0 0.0
2017-Feb-21 16:33N 40°45' W 073°58'0 0.0
2017-Feb-21 15:33N 40°45' W 073°58'3 2.9
2017-Feb-21 14:33N 40°42' W 074°00'10 9.9
2017-Feb-21 13:33N 40°32' W 074°02'7 7.5
2017-Feb-21 12:34N 40°40' W 074°02'1514.0
2017-Feb-21 11:28N 40°25' W 073°60'2 2.0
2017-Feb-21 10:33N 40°25' W 074°02'0 0.0
2017-Feb-21 01:33N 40°25' W 074°02'0 0.2
2017-Feb-21 00:33N 40°25' W 074°02'1818.8
2017-Feb-20 23:33N 40°44' W 073°58'1918.5
2017-Feb-20 22:33N 40°25' W 074°02'1717.5
2017-Feb-20 21:33N 40°42' W 073°59'2 2.3
2017-Feb-20 20:33N 40°45' W 073°58'0 0.0
2017-Feb-20 19:32N 40°45' W 073°58'0 0.0
2017-Feb-20 18:33N 40°45' W 073°58'0 0.0
2017-Feb-20 17:33N 40°45' W 073°58'0 0.0
2017-Feb-20 16:33N 40°45' W 073°58'0 0.0
2017-Feb-20 15:33N 40°45' W 073°58'3 3.2
2017-Feb-20 14:34N 40°42' W 074°00'1210.7
2017-Feb-20 13:28N 40°30' W 074°02'1011.4
2017-Feb-20 12:33N 40°41' W 074°01'1611.3
2017-Feb-20 11:08N 40°25' W 073°60'  
2017-Feb-18 02:33N 40°25' W 074°02'2 1.6
2017-Feb-18 01:33N 40°25' W 073°60'1919.2
2017-Feb-18 00:34N 40°44' W 073°58'1918.1
2017-Feb-17 23:31N 40°25' W 074°00'1717.4
2017-Feb-17 22:34N 40°41' W 074°01'1 0.9
2017-Feb-17 21:34N 40°41' W 074°01'1210.9
2017-Feb-17 20:29N 40°29' W 074°01'1617.5
2017-Feb-17 19:33N 40°45' W 073°58'0 0.0
2017-Feb-17 18:34N 40°45' W 073°58'0 0.0
2017-Feb-17 17:33N 40°45' W 073°58'0 0.0
2017-Feb-17 16:33N 40°45' W 073°58'0 0.0
2017-Feb-17 15:33N 40°45' W 073°58'3 3.0
2017-Feb-17 14:34N 40°42' W 074°00'1111.2
2017-Feb-17 13:32N 40°31' W 074°02'8 8.5
2017-Feb-17 12:34N 40°39' W 074°02'14 6.9
2017-Feb-17 10:33N 40°25' W 074°02'0 0.0
2017-Feb-17 02:33N 40°25' W 074°02'0 0.5
2017-Feb-17 01:32N 40°25' W 074°01'2019.8
2017-Feb-17 00:33N 40°44' W 073°58'2019.3
2017-Feb-16 23:31N 40°25' W 073°60'1717.3
2017-Feb-16 22:34N 40°41' W 074°01'2 2.3
2017-Feb-16 21:34N 40°39' W 074°02'1312.0
2017-Feb-16 20:31N 40°27' W 074°01'1818.8
2017-Feb-16 19:33N 40°45' W 073°58'0 0.0
2017-Feb-16 18:33N 40°45' W 073°58'0 0.0
2017-Feb-16 17:33N 40°45' W 073°58'0 0.0
2017-Feb-16 16:33N 40°45' W 073°58'0 0.0
2017-Feb-16 15:33N 40°45' W 073°58'5 5.4
2017-Feb-16 14:34N 40°40' W 074°01'4 4.3
2017-Feb-16 13:33N 40°36' W 074°03'3 3.4
2017-Feb-16 12:34N 40°39' W 074°02'14 1.4
2017-Feb-16 02:33N 40°25' W 074°02'2 1.8
2017-Feb-16 01:32N 40°25' W 073°60'1919.5
2017-Feb-16 00:33N 40°44' W 073°58'1615.9
2017-Feb-15 23:33N 40°28' W 074°01'1414.1
2017-Feb-15 22:33N 40°42' W 074°00'1 0.7
2017-Feb-15 21:33N 40°41' W 074°01'10 8.8
2017-Feb-15 20:23N 40°31' W 074°02'1417.0
2017-Feb-15 19:33N 40°45' W 073°58'0 0.0
2017-Feb-15 18:33N 40°45' W 073°58'0 0.0
2017-Feb-15 17:33N 40°45' W 073°58'0 0.0
2017-Feb-15 16:33N 40°45' W 073°58'0 0.0
2017-Feb-15 15:33N 40°45' W 073°58'3 2.9
2017-Feb-15 14:33N 40°42' W 074°00'10 9.3
2017-Feb-15 13:31N 40°33' W 074°02'8 4.2
2017-Feb-15 11:33N 40°25' W 073°60'2 1.8
2017-Feb-15 10:33N 40°25' W 074°02'0 0.0
2017-Feb-15 02:33N 40°25' W 074°02'2 1.8
2017-Feb-15 01:32N 40°25' W 073°60'1919.8
2017-Feb-15 00:34N 40°44' W 073°58'  

Dump ship's entire track history